createdAt,value
2023-05-22T00:01:09.853Z,18.1
2023-05-22T00:02:24.127Z,18.1
2023-05-22T00:03:38.425Z,18.1
2023-05-22T00:04:52.816Z,18.1
2023-05-22T00:06:07.144Z,18.2
2023-05-22T00:07:21.428Z,18.2
2023-05-22T00:08:35.706Z,18.2
2023-05-22T00:09:50.124Z,18.2
2023-05-22T00:11:04.436Z,18.2
2023-05-22T00:12:18.720Z,18.2
2023-05-22T00:13:33.001Z,18.3
2023-05-22T00:14:47.419Z,18.3
2023-05-22T00:16:01.737Z,18.3
2023-05-22T00:17:16.003Z,18.3
2023-05-22T00:18:30.352Z,18.3
2023-05-22T00:19:44.752Z,18.3
2023-05-22T00:20:59.096Z,18.2
2023-05-22T00:22:13.427Z,18.3
2023-05-22T00:23:26.787Z,18.3
2023-05-22T00:24:41.176Z,18.3
2023-05-22T00:25:55.508Z,18.4
2023-05-22T00:27:09.782Z,18.4
2023-05-22T00:28:24.069Z,18.4
2023-05-22T00:29:38.482Z,18.4
2023-05-22T00:30:52.807Z,18.4
2023-05-22T00:32:07.072Z,18.4
2023-05-22T00:33:21.365Z,18.4
2023-05-22T00:34:35.766Z,18.5
2023-05-22T00:35:50.099Z,18.5
2023-05-22T00:37:04.379Z,18.5
2023-05-22T00:38:18.660Z,18.5
2023-05-22T00:39:33.054Z,18.5
2023-05-22T00:40:47.388Z,18.5
2023-05-22T00:42:01.674Z,18.4
2023-05-22T00:43:15.954Z,18.4
2023-05-22T00:44:30.350Z,18.4
2023-05-22T00:45:44.687Z,18.5
2023-05-22T00:46:58.960Z,18.5
2023-05-22T00:48:13.240Z,18.5
2023-05-22T00:49:27.528Z,18.6
2023-05-22T00:50:41.939Z,18.6
2023-05-22T00:51:56.223Z,18.6
2023-05-22T00:53:10.505Z,18.6
2023-05-22T00:54:24.837Z,18.6
2023-05-22T00:55:39.259Z,18.5
2023-05-22T00:56:53.582Z,18.5
2023-05-22T00:58:06.931Z,18.6
2023-05-22T00:59:21.221Z,18.6
2023-05-22T01:00:35.627Z,18.6
2023-05-22T01:01:49.920Z,18.6
2023-05-22T01:03:04.194Z,18.6
2023-05-22T01:04:18.476Z,18.7
2023-05-22T01:05:32.897Z,18.7
2023-05-22T01:06:47.222Z,18.7
2023-05-22T01:08:01.485Z,18.7
2023-05-22T01:09:15.780Z,18.8
2023-05-22T01:10:30.177Z,18.8
2023-05-22T01:11:44.510Z,18.9
2023-05-22T01:12:58.775Z,19
2023-05-22T01:14:13.061Z,19.1
2023-05-22T01:15:27.476Z,19.1
2023-05-22T01:16:41.797Z,19.1
2023-05-22T01:17:56.067Z,19.1
2023-05-22T01:19:10.348Z,19.1
2023-05-22T01:20:24.768Z,19.1
2023-05-22T01:21:39.094Z,19.1
2023-05-22T01:22:53.364Z,19.2
2023-05-22T01:24:07.644Z,19.2
2023-05-22T01:25:22.044Z,19.2
2023-05-22T01:26:36.368Z,19.2
2023-05-22T01:27:50.661Z,19.2
2023-05-22T01:29:04.990Z,19.1
2023-05-22T01:30:19.400Z,19.1
2023-05-22T01:31:33.735Z,19.1
2023-05-22T01:32:48.161Z,19.1
2023-05-22T01:34:02.476Z,19.1
2023-05-22T01:35:16.767Z,19.1
2023-05-22T01:36:31.179Z,19.1
2023-05-22T01:37:45.497Z,19.1
2023-05-22T01:38:59.779Z,19.1
2023-05-22T01:40:14.050Z,19
2023-05-22T01:41:28.474Z,19
2023-05-22T01:42:42.782Z,18.9
2023-05-22T01:43:57.062Z,18.8
2023-05-22T01:45:11.341Z,18.8
2023-05-22T01:46:25.763Z,18.7
2023-05-22T01:47:40.076Z,18.7
2023-05-22T01:48:54.358Z,18.7
2023-05-22T01:50:08.634Z,18.6
2023-05-22T01:51:22.991Z,18.5
2023-05-22T01:52:37.321Z,18.5
2023-05-22T01:53:51.607Z,18.4
2023-05-22T01:55:05.885Z,18.4
2023-05-22T01:56:20.284Z,18.4
2023-05-22T01:57:34.614Z,18.3
2023-05-22T01:58:48.887Z,18.2
2023-05-22T02:00:03.180Z,18.1
2023-05-22T02:01:17.582Z,18.1
2023-05-22T02:02:31.896Z,18
2023-05-22T02:03:46.250Z,17.9
2023-05-22T02:04:59.619Z,17.8
2023-05-22T02:06:13.961Z,17.9
2023-05-22T02:07:27.314Z,17.8
2023-05-22T02:08:41.594Z,17.7
2023-05-22T02:09:55.996Z,17.7
2023-05-22T02:11:10.317Z,17.7
2023-05-22T02:12:24.611Z,17.6
2023-05-22T02:13:39.000Z,17.6
2023-05-22T02:14:53.420Z,17.5
2023-05-22T02:16:07.741Z,17.4
2023-05-22T02:17:22.026Z,17.4
2023-05-22T02:18:36.292Z,17.4
2023-05-22T02:19:50.712Z,17.4
2023-05-22T02:21:05.039Z,17.4
2023-05-22T02:22:19.307Z,17.4
2023-05-22T02:23:33.581Z,17.4
2023-05-22T02:24:47.991Z,17.4
2023-05-22T02:26:02.319Z,17.4
2023-05-22T02:27:16.590Z,17.4
2023-05-22T02:28:30.884Z,17.4
2023-05-22T02:29:45.278Z,17.4
2023-05-22T02:30:59.611Z,17.4
2023-05-22T02:32:13.884Z,17.4
2023-05-22T02:33:28.164Z,17.4
2023-05-22T02:34:42.588Z,17.3
2023-05-22T02:35:56.897Z,17.3
2023-05-22T02:37:11.192Z,17.2
2023-05-22T02:38:25.466Z,17.1
2023-05-22T02:39:39.864Z,17.1
2023-05-22T02:40:54.206Z,17.1
2023-05-22T02:42:08.484Z,17.1
2023-05-22T02:43:22.766Z,17.1
2023-05-22T02:44:37.157Z,17.1
2023-05-22T02:45:51.436Z,17.1
2023-05-22T02:47:05.714Z,17.1
2023-05-22T02:48:19.997Z,17.1
2023-05-22T02:49:34.412Z,17.1
2023-05-22T02:50:48.721Z,17.2
2023-05-22T02:52:03.013Z,17.2
2023-05-22T02:53:17.289Z,17.3
2023-05-22T02:54:31.646Z,17.3
2023-05-22T02:55:45.889Z,17.3
2023-05-22T02:57:00.107Z,17.3
2023-05-22T02:58:14.340Z,17.3
2023-05-22T02:59:28.630Z,17.2
2023-05-22T03:00:42.976Z,17.2
2023-05-22T03:03:11.550Z,17.1
2023-05-22T03:04:24.848Z,17.1
2023-05-22T03:05:39.154Z,17.1
2023-05-22T03:06:53.388Z,17.1
2023-05-22T03:08:07.630Z,17.1
2023-05-22T03:09:21.848Z,17.1
2023-05-22T03:10:36.080Z,17
2023-05-22T03:11:50.379Z,17
2023-05-22T03:13:04.626Z,17
2023-05-22T03:14:18.836Z,17
2023-05-22T03:15:33.068Z,16.9
2023-05-22T03:16:47.306Z,16.9
2023-05-22T03:18:01.587Z,16.9
2023-05-22T03:19:15.842Z,17
2023-05-22T03:20:30.061Z,17
2023-05-22T03:21:44.299Z,17
2023-05-22T03:22:58.646Z,17.1
2023-05-22T03:24:12.933Z,17.1
2023-05-22T03:25:27.176Z,17.1
2023-05-22T03:26:41.399Z,17
2023-05-22T03:27:55.629Z,17
2023-05-22T03:29:09.856Z,17
2023-05-22T03:30:24.153Z,17
2023-05-22T03:31:38.392Z,17
2023-05-22T03:32:52.632Z,17
2023-05-22T03:34:06.855Z,17
2023-05-22T03:35:21.079Z,17
2023-05-22T03:36:35.378Z,16.9
2023-05-22T03:37:49.620Z,16.9
2023-05-22T03:39:03.851Z,16.9
2023-05-22T03:40:18.076Z,16.9
2023-05-22T03:41:32.296Z,16.9
2023-05-22T03:42:46.591Z,16.9
2023-05-22T03:44:00.845Z,17
2023-05-22T03:45:15.069Z,17
2023-05-22T03:46:29.300Z,17.1
2023-05-22T03:47:43.511Z,17.1
2023-05-22T03:48:57.813Z,17.1
2023-05-22T03:50:12.065Z,17.2
2023-05-22T03:51:26.283Z,17.2
2023-05-22T03:52:40.504Z,17.2
2023-05-22T03:53:54.744Z,17.2
2023-05-22T03:55:09.041Z,17.2
2023-05-22T03:56:23.274Z,17.2
2023-05-22T03:57:37.506Z,17.2
2023-05-22T03:58:51.732Z,17.2
2023-05-22T04:00:05.951Z,17.2
2023-05-22T04:01:20.255Z,17.2
2023-05-22T04:02:34.506Z,17.2
2023-05-22T04:03:48.725Z,17.3
2023-05-22T04:05:02.944Z,17.3
2023-05-22T04:06:17.177Z,17.2
2023-05-22T04:07:31.478Z,17.3
2023-05-22T04:08:45.768Z,17.2
2023-05-22T04:09:59.077Z,17.2
2023-05-22T04:11:13.296Z,17.1
2023-05-22T04:12:27.593Z,17.2
2023-05-22T04:13:41.844Z,17.2
2023-05-22T04:14:56.065Z,17.2
2023-05-22T04:16:10.296Z,17.1
2023-05-22T04:17:24.523Z,17.1
2023-05-22T04:18:38.810Z,17.2
2023-05-22T04:19:53.059Z,17.2
2023-05-22T04:21:07.285Z,17.2
2023-05-22T04:22:21.509Z,17.2
2023-05-22T04:23:35.742Z,17.2
2023-05-22T04:24:50.046Z,17.3
2023-05-22T04:26:04.270Z,17.3
2023-05-22T04:27:18.511Z,17.3
2023-05-22T04:28:32.725Z,17.3
2023-05-22T04:29:46.965Z,17.3
2023-05-22T04:31:01.257Z,17.3
2023-05-22T04:32:15.496Z,17.3
2023-05-22T04:33:29.730Z,17.4
2023-05-22T04:34:43.943Z,17.4
2023-05-22T04:35:58.184Z,17.4
2023-05-22T04:37:12.484Z,17.4
2023-05-22T04:38:26.716Z,17.4
2023-05-22T04:39:40.936Z,17.4
2023-05-22T04:40:55.237Z,17.4
2023-05-22T04:42:08.579Z,17.4
2023-05-22T04:43:22.856Z,17.4
2023-05-22T04:44:36.149Z,17.4
2023-05-22T04:45:50.368Z,17.4
2023-05-22T04:47:04.681Z,17.4
2023-05-22T04:48:18.912Z,17.4
2023-05-22T04:49:33.141Z,17.4
2023-05-22T04:50:47.377Z,17.4
2023-05-22T04:52:01.595Z,17.4
2023-05-22T04:53:15.893Z,17.3
2023-05-22T04:54:30.134Z,17.3
2023-05-22T04:55:44.372Z,17.3
2023-05-22T04:56:58.593Z,17.4
2023-05-22T04:58:12.807Z,17.4
2023-05-22T04:59:27.117Z,17.5
2023-05-22T05:00:41.350Z,17.6
2023-05-22T05:01:55.589Z,17.6
2023-05-22T05:03:09.813Z,17.6
2023-05-22T05:04:24.028Z,17.6
2023-05-22T05:05:38.331Z,17.7
2023-05-22T05:06:52.586Z,17.7
2023-05-22T05:08:06.810Z,17.7
2023-05-22T05:09:21.036Z,17.7
2023-05-22T05:10:35.256Z,17.8
2023-05-22T05:11:49.559Z,17.8
2023-05-22T05:13:03.795Z,17.8
2023-05-22T05:14:18.033Z,17.9
2023-05-22T05:15:32.317Z,17.9
2023-05-22T05:16:45.599Z,17.9
2023-05-22T05:17:59.847Z,18
2023-05-22T05:19:14.068Z,18
2023-05-22T05:20:28.303Z,17.9
2023-05-22T05:21:42.518Z,17.9
2023-05-22T05:22:56.821Z,18
2023-05-22T05:24:11.063Z,18
2023-05-22T05:25:25.299Z,18.1
2023-05-22T05:26:39.521Z,18.2
2023-05-22T05:27:53.739Z,18.2
2023-05-22T05:29:08.035Z,18.2
2023-05-22T05:30:22.294Z,18.3
2023-05-22T05:31:36.508Z,18.3
2023-05-22T05:32:50.746Z,18.4
2023-05-22T05:34:04.975Z,18.5
2023-05-22T05:35:19.255Z,18.5
2023-05-22T05:36:33.506Z,18.6
2023-05-22T05:37:47.737Z,18.5
2023-05-22T05:39:01.962Z,18.6
2023-05-22T05:40:16.193Z,18.6
2023-05-22T05:41:30.486Z,18.6
2023-05-22T05:42:44.724Z,18.6
2023-05-22T05:43:58.946Z,18.6
2023-05-22T05:45:13.169Z,18.6
2023-05-22T05:46:27.406Z,18.5
2023-05-22T05:47:41.773Z,18.6
2023-05-22T05:48:56.049Z,18.6
2023-05-22T05:50:09.379Z,18.7
2023-05-22T05:51:22.673Z,18.8
2023-05-22T05:52:36.910Z,18.8
2023-05-22T05:53:51.135Z,18.8
2023-05-22T05:55:05.365Z,18.8
2023-05-22T05:56:19.593Z,18.9
2023-05-22T05:57:33.885Z,18.9
2023-05-22T05:58:48.128Z,18.9
2023-05-22T06:00:02.365Z,19
2023-05-22T06:01:16.598Z,19.1
2023-05-22T06:02:30.817Z,19.2
2023-05-22T06:03:45.121Z,19.2
2023-05-22T06:04:59.359Z,19.2
2023-05-22T06:06:13.584Z,19.3
2023-05-22T06:07:27.813Z,19.3
2023-05-22T06:08:42.025Z,19.3
2023-05-22T06:09:56.338Z,19.2
2023-05-22T06:11:10.581Z,19.2
2023-05-22T06:12:24.798Z,19.2
2023-05-22T06:13:39.035Z,19.2
2023-05-22T06:14:53.263Z,19.2
2023-05-22T06:16:07.564Z,19.1
2023-05-22T06:17:21.791Z,19.1
2023-05-22T06:18:36.018Z,19.1
2023-05-22T06:19:50.245Z,19.2
2023-05-22T06:21:04.483Z,19.2
2023-05-22T06:22:18.824Z,19.3
2023-05-22T06:23:33.117Z,19.4
2023-05-22T06:24:46.412Z,19.5
2023-05-22T06:26:00.637Z,19.5
2023-05-22T06:27:14.941Z,19.6
2023-05-22T06:28:29.173Z,19.7
2023-05-22T06:29:43.401Z,19.8
2023-05-22T06:30:57.639Z,19.7
2023-05-22T06:32:11.866Z,19.6
2023-05-22T06:33:26.161Z,19.6
2023-05-22T06:34:40.398Z,19.6
2023-05-22T06:35:54.631Z,19.6
2023-05-22T06:37:08.856Z,19.6
2023-05-22T06:38:23.085Z,19.7
2023-05-22T06:39:37.378Z,19.7
2023-05-22T06:40:51.624Z,19.7
2023-05-22T06:42:05.836Z,19.9
2023-05-22T06:43:20.074Z,19.9
2023-05-22T06:44:34.302Z,20
2023-05-22T06:45:48.597Z,20.1
2023-05-22T06:47:02.837Z,20.1
2023-05-22T06:48:17.075Z,20.2
2023-05-22T06:49:31.290Z,20.3
2023-05-22T06:50:45.521Z,20.3
2023-05-22T06:51:59.824Z,20.3
2023-05-22T06:53:14.054Z,20.2
2023-05-22T06:54:28.277Z,20.1
2023-05-22T06:55:42.563Z,20.1
2023-05-22T06:56:55.898Z,20.2
2023-05-22T06:58:10.193Z,20.2
2023-05-22T06:59:23.486Z,20.3
2023-05-22T07:00:37.716Z,20.5
2023-05-22T07:01:52.007Z,20.5
2023-05-22T07:03:06.243Z,20.5
2023-05-22T07:04:20.485Z,20.6
2023-05-22T07:05:34.701Z,20.6
2023-05-22T07:06:48.920Z,20.7
2023-05-22T07:08:03.238Z,20.7
2023-05-22T07:09:17.471Z,20.9
2023-05-22T07:10:31.695Z,20.9
2023-05-22T07:11:46.042Z,21
2023-05-22T07:13:00.269Z,21.1
2023-05-22T07:14:14.571Z,21.2
2023-05-22T07:15:28.823Z,21.3
2023-05-22T07:16:43.036Z,21.4
2023-05-22T07:17:57.275Z,21.5
2023-05-22T07:19:11.493Z,21.6
2023-05-22T07:20:25.785Z,21.6
2023-05-22T07:21:40.029Z,21.6
2023-05-22T07:22:54.265Z,21.6
2023-05-22T07:24:08.485Z,21.8
2023-05-22T07:25:22.704Z,21.9
2023-05-22T07:26:37.010Z,22
2023-05-22T07:27:51.257Z,22.1
2023-05-22T07:29:05.472Z,22.2
2023-05-22T07:30:19.711Z,22.3
2023-05-22T07:31:33.928Z,22.5
2023-05-22T07:32:48.227Z,22.7
2023-05-22T07:34:02.486Z,22.9
2023-05-22T07:35:16.708Z,23
2023-05-22T07:36:30.940Z,23.1
2023-05-22T07:37:45.153Z,23.1
2023-05-22T07:38:59.454Z,23.3
2023-05-22T07:40:13.706Z,23.3
2023-05-22T07:42:42.144Z,23.6
2023-05-22T07:43:56.372Z,23.6
2023-05-22T07:45:10.679Z,24
2023-05-22T07:46:24.915Z,24
2023-05-22T07:47:39.154Z,24
2023-05-22T07:48:53.376Z,24.3
2023-05-22T07:50:07.596Z,24.6
2023-05-22T07:51:21.907Z,24.5
2023-05-22T07:52:36.149Z,24.6
2023-05-22T07:53:50.371Z,24.6
2023-05-22T07:55:04.590Z,24.6
2023-05-22T07:56:18.818Z,24.4
2023-05-22T07:57:33.185Z,24.4
2023-05-22T07:58:47.460Z,24.4
2023-05-22T08:00:00.790Z,24.2
2023-05-22T08:01:14.087Z,24.3
2023-05-22T08:02:28.330Z,24.6
2023-05-22T08:03:42.562Z,24.8
2023-05-22T08:04:56.788Z,25
2023-05-22T08:06:11.022Z,24.6
2023-05-22T08:07:25.318Z,24.5
2023-05-22T08:08:39.559Z,24.4
2023-05-22T08:11:08.014Z,24.6
2023-05-22T08:12:22.227Z,24.9
2023-05-22T08:13:36.538Z,25.2
2023-05-22T08:14:50.767Z,25.7
2023-05-22T08:16:05.012Z,26.1
2023-05-22T08:17:19.240Z,26.3
2023-05-22T08:18:33.462Z,25.9
2023-05-22T08:19:47.751Z,26.5
2023-05-22T08:21:01.993Z,27
2023-05-22T08:22:16.234Z,27.4
2023-05-22T08:23:30.445Z,27.7
2023-05-22T08:24:44.671Z,27.8
2023-05-22T08:25:58.984Z,28.4
2023-05-22T08:27:13.217Z,28.8
2023-05-22T08:28:27.455Z,28.4
2023-05-22T08:29:41.672Z,28.6
2023-05-22T08:30:56.044Z,28.7
2023-05-22T08:32:10.338Z,29.1
2023-05-22T08:33:24.591Z,29.2
2023-05-22T08:34:38.813Z,29.5
2023-05-22T08:35:53.046Z,29.6
2023-05-22T08:37:07.266Z,30.1
2023-05-22T08:38:21.579Z,29.8
2023-05-22T08:39:35.807Z,29.3
2023-05-22T08:40:50.037Z,28.7
2023-05-22T08:42:04.266Z,28.3
2023-05-22T08:43:18.492Z,28.4
2023-05-22T08:44:32.803Z,27.9
2023-05-22T08:45:47.036Z,28.1
2023-05-22T08:47:01.256Z,27.7
2023-05-22T08:48:15.492Z,27.1
2023-05-22T08:49:29.712Z,27
2023-05-22T08:50:44.027Z,27.9
2023-05-22T08:51:58.251Z,28.5
2023-05-22T08:53:12.484Z,28.8
2023-05-22T08:54:26.723Z,29.2
2023-05-22T08:55:40.950Z,29
2023-05-22T08:56:55.235Z,29
2023-05-22T08:58:09.475Z,28.7
2023-05-22T08:59:23.720Z,28.7
2023-05-22T09:00:37.933Z,28.1
2023-05-22T09:01:52.226Z,27.4
2023-05-22T09:03:06.516Z,27
2023-05-22T09:04:20.804Z,27.5
2023-05-22T09:06:48.341Z,27.5
2023-05-22T09:08:02.639Z,27
2023-05-22T09:09:16.890Z,26.7
2023-05-22T09:10:31.098Z,26.4
2023-05-22T09:11:45.331Z,26.4
2023-05-22T09:12:59.566Z,26.9
2023-05-22T09:14:13.860Z,28.1
2023-05-22T09:15:28.104Z,28.8
2023-05-22T09:16:42.341Z,29.2
2023-05-22T09:17:56.554Z,29.6
2023-05-22T09:19:10.777Z,29.9
2023-05-22T09:20:25.097Z,30.4
2023-05-22T09:21:39.328Z,30.7
2023-05-22T09:22:53.548Z,30.9
2023-05-22T09:24:07.792Z,30.1
2023-05-22T09:25:22.002Z,29
2023-05-22T09:26:36.315Z,28.6
2023-05-22T09:27:50.555Z,28.4
2023-05-22T09:29:04.790Z,28.7
2023-05-22T09:30:19.013Z,29.1
2023-05-22T09:31:33.232Z,29
2023-05-22T09:32:47.529Z,28.7
2023-05-22T09:34:01.779Z,28.2
2023-05-22T09:35:16.010Z,28.1
2023-05-22T09:36:30.301Z,28.1
2023-05-22T09:37:43.634Z,28
2023-05-22T09:38:57.918Z,28.6
2023-05-22T09:40:11.215Z,29
2023-05-22T09:41:25.452Z,29.3
2023-05-22T09:42:39.754Z,30.2
2023-05-22T09:43:53.984Z,30.7
2023-05-22T09:45:08.206Z,31
2023-05-22T09:46:22.450Z,30.6
2023-05-22T09:47:36.674Z,31
2023-05-22T09:48:50.979Z,30.9
2023-05-22T09:50:05.215Z,30.9
2023-05-22T09:51:19.432Z,31.2
2023-05-22T09:52:33.670Z,30.5
2023-05-22T09:53:47.891Z,29.6
2023-05-22T09:55:02.194Z,29.1
2023-05-22T09:56:16.444Z,29.5
2023-05-22T09:57:30.659Z,29.1
2023-05-22T09:58:44.898Z,29.6
2023-05-22T09:59:59.114Z,30
2023-05-22T10:01:13.433Z,29.9
2023-05-22T10:02:27.664Z,30
2023-05-22T10:03:41.887Z,30
2023-05-22T10:04:56.128Z,29.9
2023-05-22T10:06:10.343Z,29.7
2023-05-22T10:07:24.659Z,29.9
2023-05-22T10:08:38.900Z,30
2023-05-22T10:09:53.130Z,29.9
2023-05-22T10:11:07.404Z,29.7
2023-05-22T10:12:20.715Z,29.6
2023-05-22T10:13:34.942Z,29.3
2023-05-22T10:14:49.173Z,29.2
2023-05-22T10:16:03.411Z,29.4
2023-05-22T10:17:17.632Z,28.9
2023-05-22T10:18:31.943Z,29.2
2023-05-22T10:19:46.171Z,29.8
2023-05-22T10:21:00.395Z,30.1
2023-05-22T10:22:14.625Z,30.2
2023-05-22T10:23:28.851Z,30.7
2023-05-22T10:24:43.157Z,30.8
2023-05-22T10:25:57.402Z,30.8
2023-05-22T10:27:11.632Z,31.2
2023-05-22T10:28:25.867Z,31.4
2023-05-22T10:29:40.090Z,32
2023-05-22T10:30:54.383Z,31.9
2023-05-22T10:32:08.639Z,32
2023-05-22T10:33:22.866Z,31.5
2023-05-22T10:34:37.218Z,30.5
2023-05-22T10:35:51.436Z,30.5
2023-05-22T10:37:05.750Z,29.6
2023-05-22T10:38:19.985Z,29
2023-05-22T10:39:34.350Z,29
2023-05-22T10:40:48.591Z,29.4
2023-05-22T10:43:17.227Z,30.9
2023-05-22T10:44:31.480Z,31.6
2023-05-22T10:45:45.697Z,31.9
2023-05-22T10:46:59.937Z,31.8
2023-05-22T10:48:14.157Z,30.9
2023-05-22T10:49:28.457Z,30.3
2023-05-22T10:50:42.700Z,29.5
2023-05-22T10:51:56.928Z,29.3
2023-05-22T10:53:11.172Z,29.7
2023-05-22T10:54:25.385Z,29.9
2023-05-22T10:55:39.685Z,30.3
2023-05-22T10:56:53.931Z,30.5
2023-05-22T10:58:08.160Z,30.9
2023-05-22T10:59:22.381Z,31.5
2023-05-22T11:00:36.613Z,31.9
2023-05-22T11:01:50.915Z,31.9
2023-05-22T11:03:05.166Z,32
2023-05-22T11:04:19.511Z,32.4
2023-05-22T11:05:33.749Z,32
2023-05-22T11:06:47.972Z,31.9
2023-05-22T11:08:02.279Z,32
2023-05-22T11:09:16.514Z,31.3
2023-05-22T11:10:30.748Z,31.4
2023-05-22T11:11:44.972Z,31.3
2023-05-22T11:12:59.194Z,32
2023-05-22T11:14:13.507Z,32.5
2023-05-22T11:15:27.746Z,32.7
2023-05-22T11:16:42.108Z,32.7
2023-05-22T11:17:56.344Z,33.2
2023-05-22T11:19:10.685Z,32.4
2023-05-22T11:20:24.992Z,31.4
2023-05-22T11:21:39.247Z,30.1
2023-05-22T11:22:53.462Z,29.8
2023-05-22T11:24:07.687Z,29.6
2023-05-22T11:25:21.914Z,29.5
2023-05-22T11:26:36.231Z,29.8
2023-05-22T11:27:50.472Z,30.4
2023-05-22T11:29:04.699Z,30.9
2023-05-22T11:30:18.924Z,31.4
2023-05-22T11:31:33.144Z,31.1
2023-05-22T11:32:47.458Z,30.9
2023-05-22T11:34:01.697Z,30.5
2023-05-22T11:35:15.917Z,30.1
2023-05-22T11:36:30.278Z,30.1
2023-05-22T11:37:44.502Z,29.8
2023-05-22T11:38:58.809Z,29.2
2023-05-22T11:40:13.045Z,29
2023-05-22T11:41:27.272Z,28.8
2023-05-22T11:42:41.501Z,28.6
2023-05-22T11:43:55.735Z,28
2023-05-22T11:45:10.037Z,27.4
2023-05-22T11:46:24.271Z,27.2
2023-05-22T11:47:38.491Z,27.3
2023-05-22T11:48:52.728Z,27.5
2023-05-22T11:50:06.957Z,27.7
2023-05-22T11:51:21.259Z,28
2023-05-22T11:52:35.498Z,28
2023-05-22T11:53:49.866Z,28.7
2023-05-22T11:55:04.086Z,29.6
2023-05-22T11:56:18.459Z,30.1
2023-05-22T11:58:46.999Z,31.4
2023-05-22T12:00:01.234Z,31.8
2023-05-22T12:01:15.464Z,31.2
2023-05-22T12:02:29.687Z,30.8
2023-05-22T12:03:43.983Z,30.4
2023-05-22T12:04:58.225Z,29.8
2023-05-22T12:06:12.455Z,29.2
2023-05-22T12:07:26.694Z,28.7
2023-05-22T12:08:40.913Z,28.3
2023-05-22T12:09:55.214Z,28.1
2023-05-22T12:11:09.456Z,28.2
2023-05-22T12:12:23.685Z,28.2
2023-05-22T12:13:37.920Z,29
2023-05-22T12:14:52.140Z,29.6
2023-05-22T12:16:06.439Z,30.4
2023-05-22T12:17:20.679Z,31.3
2023-05-22T12:18:34.915Z,31.7
2023-05-22T12:19:49.132Z,32
2023-05-22T12:21:03.357Z,32.4
2023-05-22T12:22:17.668Z,32.5
2023-05-22T12:23:31.900Z,33
2023-05-22T12:24:46.143Z,32.3
2023-05-22T12:26:00.356Z,31.5
2023-05-22T12:27:14.650Z,30.6
2023-05-22T12:28:28.955Z,30
2023-05-22T12:29:43.233Z,29.7
2023-05-22T12:30:56.527Z,29.4
2023-05-22T12:32:10.749Z,29.4
2023-05-22T12:33:25.064Z,28.9
2023-05-22T12:34:39.307Z,28.6
2023-05-22T12:35:53.516Z,28.6
2023-05-22T12:37:07.751Z,28.8
2023-05-22T12:38:21.982Z,29.3
2023-05-22T12:39:36.282Z,29.5
2023-05-22T12:40:50.534Z,29.1
2023-05-22T12:42:04.745Z,29.5
2023-05-22T12:43:18.968Z,30.3
2023-05-22T12:44:33.205Z,30.7
2023-05-22T12:45:47.503Z,30.7
2023-05-22T12:47:01.754Z,31.1
2023-05-22T12:48:15.977Z,31
2023-05-22T12:49:30.194Z,31.3
2023-05-22T12:50:44.438Z,31.7
2023-05-22T12:51:58.731Z,31.2
2023-05-22T12:53:12.966Z,30.2
2023-05-22T12:54:27.193Z,30
2023-05-22T12:55:41.430Z,30.5
2023-05-22T12:56:55.662Z,31
2023-05-22T12:58:09.963Z,30.6
2023-05-22T12:59:24.201Z,30.4
2023-05-22T13:01:52.711Z,29.8
2023-05-22T13:03:06.049Z,30.3
2023-05-22T13:04:20.329Z,30.8
2023-05-22T13:05:33.625Z,31
2023-05-22T13:06:47.849Z,31
2023-05-22T13:08:02.145Z,30.5
2023-05-22T13:09:16.397Z,30
2023-05-22T13:10:30.742Z,29.9
2023-05-22T13:11:44.976Z,29.8
2023-05-22T13:12:59.196Z,29.5
2023-05-22T13:14:13.492Z,29.2
2023-05-22T13:15:27.750Z,29
2023-05-22T13:16:41.966Z,28.8
2023-05-22T13:17:56.197Z,28.8
2023-05-22T13:19:10.427Z,29.1
2023-05-22T13:20:24.718Z,30
2023-05-22T13:21:38.959Z,30.3
2023-05-22T13:22:53.185Z,31
2023-05-22T13:24:07.427Z,31.3
2023-05-22T13:25:21.650Z,31.6
2023-05-22T13:26:35.950Z,31.3
2023-05-22T13:27:50.186Z,30.9
2023-05-22T13:29:04.427Z,30.7
2023-05-22T13:30:18.641Z,30.7
2023-05-22T13:31:32.877Z,31.1
2023-05-22T13:32:47.166Z,30.9
2023-05-22T13:34:01.409Z,30.4
2023-05-22T13:35:15.655Z,29.8
2023-05-22T13:36:29.868Z,29.6
2023-05-22T13:37:44.105Z,29.9
2023-05-22T13:38:58.403Z,29.9
2023-05-22T13:40:12.641Z,29.7
2023-05-22T13:41:26.867Z,30
2023-05-22T13:42:41.091Z,30.9
2023-05-22T13:43:55.325Z,31.6
2023-05-22T13:45:09.630Z,31.8
2023-05-22T13:46:23.867Z,32.1
2023-05-22T13:47:38.102Z,32.1
2023-05-22T13:48:52.317Z,32.4
2023-05-22T13:50:06.555Z,32.4
2023-05-22T13:51:20.839Z,31.8
2023-05-22T13:52:35.091Z,30.8
2023-05-22T13:53:49.315Z,30.2
2023-05-22T13:55:03.548Z,29.2
2023-05-22T13:56:17.839Z,28.8
2023-05-22T13:57:32.125Z,28.8
2023-05-22T13:58:46.416Z,28.7
2023-05-22T14:00:00.781Z,29.8
2023-05-22T14:01:15.134Z,30.6
2023-05-22T14:02:29.366Z,30.6
2023-05-22T14:03:43.662Z,30.9
2023-05-22T14:06:12.134Z,30.7
2023-05-22T14:07:26.371Z,31.3
2023-05-22T14:08:40.589Z,31.3
2023-05-22T14:09:54.904Z,31.4
2023-05-22T14:11:09.146Z,31.9
2023-05-22T14:12:23.358Z,31.7
2023-05-22T14:13:37.582Z,31.3
2023-05-22T14:14:51.824Z,31.2
2023-05-22T14:16:06.112Z,31.8
2023-05-22T14:17:20.354Z,32.1
2023-05-22T14:18:34.586Z,31.9
2023-05-22T14:19:48.818Z,32.1
2023-05-22T14:21:03.165Z,31.9
2023-05-22T14:22:17.480Z,32.2
2023-05-22T14:23:31.719Z,32.6
2023-05-22T14:24:45.928Z,32.7
2023-05-22T14:26:00.157Z,33
2023-05-22T14:27:14.388Z,32.2
2023-05-22T14:28:28.695Z,32
2023-05-22T14:29:42.934Z,32.1
2023-05-22T14:30:57.173Z,32.5
2023-05-22T14:32:11.399Z,32.7
2023-05-22T14:33:25.619Z,32.6
2023-05-22T14:34:39.919Z,32.1
2023-05-22T14:37:08.395Z,31.1
2023-05-22T14:38:22.627Z,30.5
2023-05-22T14:39:36.835Z,30.1
2023-05-22T14:40:51.146Z,30
2023-05-22T14:42:05.377Z,29.7
2023-05-22T14:43:19.620Z,30
2023-05-22T14:44:33.836Z,30.6
2023-05-22T14:45:48.061Z,31
2023-05-22T14:47:02.372Z,31.4
2023-05-22T14:48:16.602Z,31.9
2023-05-22T14:49:30.847Z,32.3
2023-05-22T14:50:45.062Z,32.8
2023-05-22T14:51:59.301Z,33.3
2023-05-22T14:53:13.600Z,33.6
2023-05-22T14:54:27.834Z,33.8
2023-05-22T14:55:42.198Z,33.4
2023-05-22T14:56:56.424Z,32.1
2023-05-22T14:58:10.792Z,31.5
2023-05-22T14:59:25.075Z,31.6
2023-05-22T15:00:39.328Z,31.8
2023-05-22T15:01:53.561Z,32.2
2023-05-22T15:03:07.771Z,32.1
2023-05-22T15:04:21.996Z,31.7
2023-05-22T15:05:36.296Z,31.9
2023-05-22T15:06:50.555Z,31.7
2023-05-22T15:08:04.770Z,31.3
2023-05-22T15:09:18.994Z,31.5
2023-05-22T15:10:33.227Z,31.6
2023-05-22T15:11:47.528Z,31.2
2023-05-22T15:13:01.763Z,30.8
2023-05-22T15:14:15.993Z,30.8
2023-05-22T15:15:30.346Z,30.6
2023-05-22T15:16:44.584Z,30.4
2023-05-22T15:17:58.879Z,30.8
2023-05-22T15:19:13.109Z,30.8
2023-05-22T15:20:27.485Z,31.1
2023-05-22T15:21:41.712Z,31.1
2023-05-22T15:22:56.070Z,31.5
2023-05-22T15:24:10.370Z,31.8
2023-05-22T15:25:24.614Z,31.8
2023-05-22T15:26:38.826Z,31.9
2023-05-22T15:27:53.052Z,31.6
2023-05-22T15:29:07.292Z,31.8
2023-05-22T15:30:21.581Z,32.2
2023-05-22T15:31:35.823Z,32.4
2023-05-22T15:32:50.055Z,32.5
2023-05-22T15:34:04.275Z,32.3
2023-05-22T15:35:18.508Z,31.9
2023-05-22T15:36:32.807Z,30.9
2023-05-22T15:37:47.044Z,30
2023-05-22T15:39:01.268Z,29.3
2023-05-22T15:40:15.622Z,29.7
2023-05-22T15:41:29.859Z,29.6
2023-05-22T15:42:44.162Z,29.2
2023-05-22T15:43:58.391Z,29.1
2023-05-22T15:45:12.629Z,28.9
2023-05-22T15:46:26.844Z,28.7
2023-05-22T15:47:41.226Z,28.5
2023-05-22T15:48:55.520Z,28
2023-05-22T15:50:09.763Z,28
2023-05-22T15:51:23.979Z,28.1
2023-05-22T15:52:38.341Z,28.2
2023-05-22T15:53:52.558Z,28.1
2023-05-22T15:55:06.868Z,28
2023-05-22T15:56:21.112Z,27.8
2023-05-22T15:57:35.339Z,26.9
2023-05-22T15:58:49.565Z,25.6
2023-05-22T16:00:03.797Z,25.1
2023-05-22T16:01:18.090Z,24.8
2023-05-22T16:02:32.335Z,24.1
2023-05-22T16:03:46.560Z,23.8
2023-05-22T16:05:00.781Z,23.5
2023-05-22T16:07:29.307Z,22.8
2023-05-22T16:08:43.546Z,22.6
2023-05-22T16:09:57.769Z,22.7
2023-05-22T16:11:12.001Z,22.7
2023-05-22T16:12:26.225Z,22.7
2023-05-22T16:13:40.520Z,22.6
2023-05-22T16:14:54.774Z,22.5
2023-05-22T16:16:09.003Z,22.2
2023-05-22T16:17:23.218Z,21.6
2023-05-22T16:18:37.450Z,21.1
2023-05-22T16:19:51.760Z,21
2023-05-22T16:21:05.998Z,20.3
2023-05-22T16:22:20.216Z,20
2023-05-22T16:23:34.438Z,19.5
2023-05-22T16:24:48.669Z,19.3
2023-05-22T16:26:02.969Z,19.1
2023-05-22T16:27:17.208Z,19.1
2023-05-22T16:28:31.441Z,19
2023-05-22T16:29:45.812Z,18.7
2023-05-22T16:31:00.027Z,18.8
2023-05-22T16:32:14.000Z,18.9
2023-05-22T16:33:28.573Z,19.1
2023-05-22T16:34:42.808Z,19.2
2023-05-22T16:35:57.021Z,18.5
2023-05-22T16:37:11.384Z,18.3
2023-05-22T16:38:25.681Z,18
2023-05-22T16:39:39.921Z,17.9
2023-05-22T16:40:54.137Z,17.9
2023-05-22T16:42:08.377Z,17.9
2023-05-22T16:43:22.594Z,17.9
2023-05-22T16:44:36.890Z,17.9
2023-05-22T16:45:51.144Z,17.8
2023-05-22T16:47:05.365Z,17.9
2023-05-22T16:48:19.584Z,17.8